sensor_id;sensor_type;location;lat;lon;timestamp;P1;durP1;ratioP1;P2;durP2;ratioP2
4959;SDS011;2495;48.200;11.532;2023-03-14T00:04:16;1.00;;;0.60;;
4959;SDS011;2495;48.200;11.532;2023-03-14T00:09:17;0.90;;;0.50;;
4959;SDS011;2495;48.200;11.532;2023-03-14T00:14:18;0.90;;;0.50;;
4959;SDS011;2495;48.200;11.532;2023-03-14T00:19:19;1.00;;;0.60;;
4959;SDS011;2495;48.200;11.532;2023-03-14T00:24:20;0.90;;;0.50;;
4959;SDS011;2495;48.200;11.532;2023-03-14T00:29:22;0.90;;;0.50;;
4959;SDS011;2495;48.200;11.532;2023-03-14T00:34:23;0.93;;;0.60;;
4959;SDS011;2495;48.200;11.532;2023-03-14T00:39:24;0.90;;;0.60;;
4959;SDS011;2495;48.200;11.532;2023-03-14T00:44:25;0.90;;;0.50;;
4959;SDS011;2495;48.200;11.532;2023-03-14T00:49:27;0.90;;;0.50;;
4959;SDS011;2495;48.200;11.532;2023-03-14T00:54:28;0.90;;;0.50;;
4959;SDS011;2495;48.200;11.532;2023-03-14T00:59:29;0.90;;;0.50;;
4959;SDS011;2495;48.200;11.532;2023-03-14T01:04:30;1.00;;;0.50;;
4959;SDS011;2495;48.200;11.532;2023-03-14T01:09:32;1.00;;;0.60;;
4959;SDS011;2495;48.200;11.532;2023-03-14T01:14:33;0.90;;;0.50;;
4959;SDS011;2495;48.200;11.532;2023-03-14T01:19:34;0.90;;;0.50;;
4959;SDS011;2495;48.200;11.532;2023-03-14T01:24:38;1.00;;;0.60;;
4959;SDS011;2495;48.200;11.532;2023-03-14T01:29:39;1.00;;;0.50;;
4959;SDS011;2495;48.200;11.532;2023-03-14T01:34:40;0.93;;;0.60;;
4959;SDS011;2495;48.200;11.532;2023-03-14T01:39:42;0.90;;;0.53;;
4959;SDS011;2495;48.200;11.532;2023-03-14T01:44:59;0.90;;;0.50;;
4959;SDS011;2495;48.200;11.532;2023-03-14T01:50:02;0.90;;;0.50;;
4959;SDS011;2495;48.200;11.532;2023-03-14T01:55:05;1.00;;;0.60;;
4959;SDS011;2495;48.200;11.532;2023-03-14T02:00:12;1.10;;;0.57;;
4959;SDS011;2495;48.200;11.532;2023-03-14T02:05:14;0.93;;;0.60;;
4959;SDS011;2495;48.200;11.532;2023-03-14T02:10:14;1.00;;;0.50;;
4959;SDS011;2495;48.200;11.532;2023-03-14T02:15:15;1.00;;;0.60;;
4959;SDS011;2495;48.200;11.532;2023-03-14T02:25:49;1.20;;;1.10;;
4959;SDS011;2495;48.200;11.532;2023-03-14T02:30:49;3.00;;;2.80;;
4959;SDS011;2495;48.200;11.532;2023-03-14T02:35:51;2.10;;;2.00;;
4959;SDS011;2495;48.200;11.532;2023-03-14T02:40:51;2.70;;;2.50;;
4959;SDS011;2495;48.200;11.532;2023-03-14T02:45:52;5.40;;;5.10;;
4959;SDS011;2495;48.200;11.532;2023-03-14T02:50:55;6.13;;;5.83;;
4959;SDS011;2495;48.200;11.532;2023-03-14T02:55:55;6.60;;;6.30;;
4959;SDS011;2495;48.200;11.532;2023-03-14T03:00:56;4.20;;;4.00;;
4959;SDS011;2495;48.200;11.532;2023-03-14T03:05:57;7.67;;;7.27;;
4959;SDS011;2495;48.200;11.532;2023-03-14T03:10:58;4.50;;;4.30;;
4959;SDS011;2495;48.200;11.532;2023-03-14T03:15:59;8.20;;;7.80;;
4959;SDS011;2495;48.200;11.532;2023-03-14T03:21:01;8.50;;;8.10;;
4959;SDS011;2495;48.200;11.532;2023-03-14T03:26:02;8.30;;;7.90;;
4959;SDS011;2495;48.200;11.532;2023-03-14T03:31:10;8.80;;;8.40;;
4959;SDS011;2495;48.200;11.532;2023-03-14T03:36:10;8.70;;;8.30;;
4959;SDS011;2495;48.200;11.532;2023-03-14T03:41:12;6.10;;;5.80;;
4959;SDS011;2495;48.200;11.532;2023-03-14T03:46:13;9.23;;;8.83;;
4959;SDS011;2495;48.200;11.532;2023-03-14T03:51:15;9.30;;;8.90;;
4959;SDS011;2495;48.200;11.532;2023-03-14T03:56:15;6.10;;;5.80;;
4959;SDS011;2495;48.200;11.532;2023-03-14T04:01:17;6.70;;;6.40;;
4959;SDS011;2495;48.200;11.532;2023-03-14T04:06:18;8.20;;;7.80;;
4959;SDS011;2495;48.200;11.532;2023-03-14T04:11:19;10.27;;;9.77;;
4959;SDS011;2495;48.200;11.532;2023-03-14T04:16:21;10.33;;;9.83;;
4959;SDS011;2495;48.200;11.532;2023-03-14T04:21:21;10.47;;;9.97;;
4959;SDS011;2495;48.200;11.532;2023-03-14T04:26:23;9.23;;;8.83;;
4959;SDS011;2495;48.200;11.532;2023-03-14T04:31:24;7.30;;;6.90;;
4959;SDS011;2495;48.200;11.532;2023-03-14T04:36:25;7.70;;;7.30;;
4959;SDS011;2495;48.200;11.532;2023-03-14T04:41:26;6.70;;;6.40;;
4959;SDS011;2495;48.200;11.532;2023-03-14T04:46:28;6.03;;;5.73;;
4959;SDS011;2495;48.200;11.532;2023-03-14T04:51:29;6.13;;;5.83;;
4959;SDS011;2495;48.200;11.532;2023-03-14T04:56:30;4.90;;;4.70;;
4959;SDS011;2495;48.200;11.532;2023-03-14T05:01:31;4.50;;;4.30;;
4959;SDS011;2495;48.200;11.532;2023-03-14T05:06:32;2.00;;;1.90;;
4959;SDS011;2495;48.200;11.532;2023-03-14T05:11:34;2.50;;;2.40;;
4959;SDS011;2495;48.200;11.532;2023-03-14T05:16:35;4.60;;;4.40;;
4959;SDS011;2495;48.200;11.532;2023-03-14T05:21:36;2.30;;;2.20;;
4959;SDS011;2495;48.200;11.532;2023-03-14T05:26:37;2.20;;;2.10;;
4959;SDS011;2495;48.200;11.532;2023-03-14T05:31:40;4.57;;;4.37;;
4959;SDS011;2495;48.200;11.532;2023-03-14T05:36:41;4.20;;;4.00;;
4959;SDS011;2495;48.200;11.532;2023-03-14T05:41:42;2.40;;;2.30;;
4959;SDS011;2495;48.200;11.532;2023-03-14T05:46:44;2.20;;;2.10;;
4959;SDS011;2495;48.200;11.532;2023-03-14T05:51:47;2.20;;;2.10;;
4959;SDS011;2495;48.200;11.532;2023-03-14T05:56:49;4.60;;;4.40;;
4959;SDS011;2495;48.200;11.532;2023-03-14T06:01:51;3.60;;;3.40;;
4959;SDS011;2495;48.200;11.532;2023-03-14T06:12:54;3.97;;;3.77;;
4959;SDS011;2495;48.200;11.532;2023-03-14T06:17:57;4.07;;;3.87;;
4959;SDS011;2495;48.200;11.532;2023-03-14T06:22:58;2.30;;;2.20;;
4959;SDS011;2495;48.200;11.532;2023-03-14T06:28:00;2.65;;;2.45;;
4959;SDS011;2495;48.200;11.532;2023-03-14T06:33:01;2.00;;;1.90;;
4959;SDS011;2495;48.200;11.532;2023-03-14T06:38:02;3.60;;;3.40;;
4959;SDS011;2495;48.200;11.532;2023-03-14T06:43:03;4.30;;;4.10;;
4959;SDS011;2495;48.200;11.532;2023-03-14T06:48:05;4.50;;;4.30;;
4959;SDS011;2495;48.200;11.532;2023-03-14T06:53:07;4.30;;;4.10;;
4959;SDS011;2495;48.200;11.532;2023-03-14T06:58:08;3.70;;;3.50;;
4959;SDS011;2495;48.200;11.532;2023-03-14T07:03:10;3.90;;;3.70;;
4959;SDS011;2495;48.200;11.532;2023-03-14T07:08:14;3.50;;;3.30;;
4959;SDS011;2495;48.200;11.532;2023-03-14T07:13:15;1.80;;;1.70;;
4959;SDS011;2495;48.200;11.532;2023-03-14T07:18:21;4.57;;;4.27;;
4959;SDS011;2495;48.200;11.532;2023-03-14T07:23:23;3.50;;;3.30;;
4959;SDS011;2495;48.200;11.532;2023-03-14T07:28:41;3.20;;;3.00;;
4959;SDS011;2495;48.200;11.532;2023-03-14T07:33:57;3.40;;;3.20;;
4959;SDS011;2495;48.200;11.532;2023-03-14T07:38:59;2.83;;;2.63;;
4959;SDS011;2495;48.200;11.532;2023-03-14T07:44:06;1.30;;;1.20;;
4959;SDS011;2495;48.200;11.532;2023-03-14T07:49:10;2.60;;;2.50;;
4959;SDS011;2495;48.200;11.532;2023-03-14T07:54:11;3.60;;;3.40;;
4959;SDS011;2495;48.200;11.532;2023-03-14T07:59:13;2.10;;;2.00;;
4959;SDS011;2495;48.200;11.532;2023-03-14T08:04:14;2.90;;;2.70;;
4959;SDS011;2495;48.200;11.532;2023-03-14T08:09:16;2.60;;;2.50;;
4959;SDS011;2495;48.200;11.532;2023-03-14T08:14:17;2.70;;;2.60;;
4959;SDS011;2495;48.200;11.532;2023-03-14T08:19:18;3.30;;;3.10;;
4959;SDS011;2495;48.200;11.532;2023-03-14T08:24:19;1.62;;;1.52;;
4959;SDS011;2495;48.200;11.532;2023-03-14T08:29:21;2.33;;;2.23;;
4959;SDS011;2495;48.200;11.532;2023-03-14T08:34:22;1.30;;;1.20;;
4959;SDS011;2495;48.200;11.532;2023-03-14T08:39:28;2.97;;;2.77;;
4959;SDS011;2495;48.200;11.532;2023-03-14T08:44:29;1.50;;;1.40;;
4959;SDS011;2495;48.200;11.532;2023-03-14T08:49:30;2.00;;;1.90;;
4959;SDS011;2495;48.200;11.532;2023-03-14T08:54:31;2.20;;;2.10;;
4959;SDS011;2495;48.200;11.532;2023-03-14T08:59:33;1.00;;;0.77;;
4959;SDS011;2495;48.200;11.532;2023-03-14T09:04:34;1.50;;;1.40;;
4959;SDS011;2495;48.200;11.532;2023-03-14T09:09:35;1.10;;;1.00;;
4959;SDS011;2495;48.200;11.532;2023-03-14T09:14:37;0.98;;;0.60;;
4959;SDS011;2495;48.200;11.532;2023-03-14T09:19:38;1.30;;;1.20;;
4959;SDS011;2495;48.200;11.532;2023-03-14T09:24:40;1.37;;;1.27;;
4959;SDS011;2495;48.200;11.532;2023-03-14T09:29:42;1.80;;;1.70;;
4959;SDS011;2495;48.200;11.532;2023-03-14T09:34:44;1.60;;;1.50;;
4959;SDS011;2495;48.200;11.532;2023-03-14T09:39:46;1.30;;;1.20;;
4959;SDS011;2495;48.200;11.532;2023-03-14T09:44:55;1.10;;;1.00;;
4959;SDS011;2495;48.200;11.532;2023-03-14T09:49:57;1.10;;;0.90;;
4959;SDS011;2495;48.200;11.532;2023-03-14T10:00:16;0.90;;;0.50;;
4959;SDS011;2495;48.200;11.532;2023-03-14T10:05:18;0.90;;;0.50;;
4959;SDS011;2495;48.200;11.532;2023-03-14T10:10:21;0.90;;;0.60;;
4959;SDS011;2495;48.200;11.532;2023-03-14T10:15:24;1.00;;;0.60;;
4959;SDS011;2495;48.200;11.532;2023-03-14T10:20:33;0.90;;;0.60;;
4959;SDS011;2495;48.200;11.532;2023-03-14T10:25:34;0.90;;;0.50;;
4959;SDS011;2495;48.200;11.532;2023-03-14T10:35:36;1.00;;;0.60;;
4959;SDS011;2495;48.200;11.532;2023-03-14T10:40:39;1.00;;;0.60;;
4959;SDS011;2495;48.200;11.532;2023-03-14T10:45:43;0.97;;;0.53;;
4959;SDS011;2495;48.200;11.532;2023-03-14T10:57:05;1.00;;;0.60;;
4959;SDS011;2495;48.200;11.532;2023-03-14T11:07:42;0.93;;;0.60;;
4959;SDS011;2495;48.200;11.532;2023-03-14T11:30:54;0.90;;;0.50;;
4959;SDS011;2495;48.200;11.532;2023-03-14T11:36:08;0.97;;;0.60;;
4959;SDS011;2495;48.200;11.532;2023-03-14T11:41:31;0.90;;;0.60;;
4959;SDS011;2495;48.200;11.532;2023-03-14T11:46:41;0.90;;;0.60;;
4959;SDS011;2495;48.200;11.532;2023-03-14T11:51:49;0.90;;;0.50;;
4959;SDS011;2495;48.200;11.532;2023-03-14T11:56:54;0.90;;;0.50;;
4959;SDS011;2495;48.200;11.532;2023-03-14T12:02:01;1.00;;;0.60;;
4959;SDS011;2495;48.200;11.532;2023-03-14T12:07:09;1.00;;;0.60;;
4959;SDS011;2495;48.200;11.532;2023-03-14T12:12:10;0.90;;;0.60;;
4959;SDS011;2495;48.200;11.532;2023-03-14T12:22:26;0.90;;;0.57;;
4959;SDS011;2495;48.200;11.532;2023-03-14T12:43:36;0.90;;;0.60;;
4959;SDS011;2495;48.200;11.532;2023-03-14T12:48:38;1.00;;;0.60;;
4959;SDS011;2495;48.200;11.532;2023-03-14T13:09:50;0.90;;;0.60;;
4959;SDS011;2495;48.200;11.532;2023-03-14T13:14:51;0.90;;;0.53;;
4959;SDS011;2495;48.200;11.532;2023-03-14T13:19:53;0.90;;;0.60;;
4959;SDS011;2495;48.200;11.532;2023-03-14T13:25:00;0.90;;;0.50;;
4959;SDS011;2495;48.200;11.532;2023-03-14T13:30:15;0.90;;;0.50;;
4959;SDS011;2495;48.200;11.532;2023-03-14T13:35:23;0.90;;;0.60;;
4959;SDS011;2495;48.200;11.532;2023-03-14T13:40:32;0.90;;;0.60;;
4959;SDS011;2495;48.200;11.532;2023-03-14T13:45:53;0.90;;;0.60;;
4959;SDS011;2495;48.200;11.532;2023-03-14T13:51:23;0.90;;;0.60;;
4959;SDS011;2495;48.200;11.532;2023-03-14T13:56:25;0.90;;;0.60;;
4959;SDS011;2495;48.200;11.532;2023-03-14T14:01:29;0.90;;;0.70;;
4959;SDS011;2495;48.200;11.532;2023-03-14T14:06:38;0.90;;;0.60;;
4959;SDS011;2495;48.200;11.532;2023-03-14T14:11:47;0.90;;;0.60;;
4959;SDS011;2495;48.200;11.532;2023-03-14T14:17:06;1.00;;;0.70;;
4959;SDS011;2495;48.200;11.532;2023-03-14T14:22:10;1.00;;;0.90;;
4959;SDS011;2495;48.200;11.532;2023-03-14T14:27:18;0.90;;;0.70;;
4959;SDS011;2495;48.200;11.532;2023-03-14T14:32:34;1.30;;;1.20;;
4959;SDS011;2495;48.200;11.532;2023-03-14T14:37:33;1.60;;;1.50;;
4959;SDS011;2495;48.200;11.532;2023-03-14T14:42:33;2.50;;;2.40;;
4959;SDS011;2495;48.200;11.532;2023-03-14T14:47:35;3.30;;;3.10;;
4959;SDS011;2495;48.200;11.532;2023-03-14T14:52:39;3.80;;;3.60;;
4959;SDS011;2495;48.200;11.532;2023-03-14T14:57:38;4.40;;;4.20;;
4959;SDS011;2495;48.200;11.532;2023-03-14T15:02:40;4.50;;;4.30;;
4959;SDS011;2495;48.200;11.532;2023-03-14T15:07:44;3.50;;;3.30;;
4959;SDS011;2495;48.200;11.532;2023-03-14T15:12:49;3.50;;;3.30;;
4959;SDS011;2495;48.200;11.532;2023-03-14T15:17:47;3.60;;;3.40;;
4959;SDS011;2495;48.200;11.532;2023-03-14T15:23:00;3.00;;;2.80;;
4959;SDS011;2495;48.200;11.532;2023-03-14T15:28:20;5.23;;;4.93;;
4959;SDS011;2495;48.200;11.532;2023-03-14T15:33:27;4.90;;;4.70;;
4959;SDS011;2495;48.200;11.532;2023-03-14T15:38:28;4.23;;;4.03;;
4959;SDS011;2495;48.200;11.532;2023-03-14T15:43:39;3.90;;;3.70;;
4959;SDS011;2495;48.200;11.532;2023-03-14T15:48:50;2.90;;;2.70;;
4959;SDS011;2495;48.200;11.532;2023-03-14T15:53:51;1.50;;;1.40;;
4959;SDS011;2495;48.200;11.532;2023-03-14T15:58:53;1.40;;;1.30;;
4959;SDS011;2495;48.200;11.532;2023-03-14T16:03:58;1.10;;;1.00;;
4959;SDS011;2495;48.200;11.532;2023-03-14T16:09:00;1.00;;;0.90;;
4959;SDS011;2495;48.200;11.532;2023-03-14T16:14:01;1.03;;;0.90;;
4959;SDS011;2495;48.200;11.532;2023-03-14T16:19:12;1.10;;;1.00;;
4959;SDS011;2495;48.200;11.532;2023-03-14T16:24:13;1.10;;;1.00;;
4959;SDS011;2495;48.200;11.532;2023-03-14T16:29:14;1.10;;;0.90;;
4959;SDS011;2495;48.200;11.532;2023-03-14T17:12:12;0.97;;;0.70;;
4959;SDS011;2495;48.200;11.532;2023-03-14T17:29:33;0.90;;;0.60;;
4959;SDS011;2495;48.200;11.532;2023-03-14T17:34:40;0.90;;;0.70;;
4959;SDS011;2495;48.200;11.532;2023-03-14T17:39:44;0.90;;;0.60;;
4959;SDS011;2495;48.200;11.532;2023-03-14T17:44:45;0.90;;;0.60;;
4959;SDS011;2495;48.200;11.532;2023-03-14T17:49:47;0.90;;;0.60;;
4959;SDS011;2495;48.200;11.532;2023-03-14T18:00:05;0.90;;;0.60;;
4959;SDS011;2495;48.200;11.532;2023-03-14T18:05:07;0.90;;;0.60;;
4959;SDS011;2495;48.200;11.532;2023-03-14T18:10:09;0.90;;;0.60;;
4959;SDS011;2495;48.200;11.532;2023-03-14T18:15:13;0.90;;;0.60;;
4959;SDS011;2495;48.200;11.532;2023-03-14T18:20:17;0.90;;;0.70;;
4959;SDS011;2495;48.200;11.532;2023-03-14T18:25:32;0.90;;;0.60;;
4959;SDS011;2495;48.200;11.532;2023-03-14T19:13:50;0.80;;;0.50;;
4959;SDS011;2495;48.200;11.532;2023-03-14T19:18:52;1.20;;;0.80;;
4959;SDS011;2495;48.200;11.532;2023-03-14T19:23:53;0.90;;;0.60;;
4959;SDS011;2495;48.200;11.532;2023-03-14T19:28:54;0.90;;;0.60;;
4959;SDS011;2495;48.200;11.532;2023-03-14T19:33:56;0.90;;;0.60;;
4959;SDS011;2495;48.200;11.532;2023-03-14T19:38:58;0.90;;;0.60;;
4959;SDS011;2495;48.200;11.532;2023-03-14T19:43:59;0.80;;;0.50;;
4959;SDS011;2495;48.200;11.532;2023-03-14T19:49:00;0.90;;;0.60;;
4959;SDS011;2495;48.200;11.532;2023-03-14T19:54:03;0.90;;;0.50;;
4959;SDS011;2495;48.200;11.532;2023-03-14T19:59:04;0.90;;;0.60;;
4959;SDS011;2495;48.200;11.532;2023-03-14T20:04:12;0.90;;;0.60;;
4959;SDS011;2495;48.200;11.532;2023-03-14T20:09:30;0.90;;;0.60;;
4959;SDS011;2495;48.200;11.532;2023-03-14T20:14:39;0.90;;;0.60;;
4959;SDS011;2495;48.200;11.532;2023-03-14T20:19:50;0.90;;;0.60;;
4959;SDS011;2495;48.200;11.532;2023-03-14T20:24:52;0.90;;;0.60;;
4959;SDS011;2495;48.200;11.532;2023-03-14T20:30:01;0.90;;;0.60;;
4959;SDS011;2495;48.200;11.532;2023-03-14T20:35:05;0.90;;;0.60;;
4959;SDS011;2495;48.200;11.532;2023-03-14T20:40:28;0.90;;;0.60;;
4959;SDS011;2495;48.200;11.532;2023-03-14T23:43:12;0.90;;;0.60;;
4959;SDS011;2495;48.200;11.532;2023-03-14T23:48:15;0.90;;;0.60;;
4959;SDS011;2495;48.200;11.532;2023-03-14T23:53:19;1.77;;;1.43;;
